sensor_id;sensor_type;location;lat;lon;timestamp;temperature;humidity
45207;DHT22;30950;53.086;21.576;2024-01-07T00:01:08;-7.60;99.90
45207;DHT22;30950;53.086;21.576;2024-01-07T00:03:56;-7.60;99.90
45207;DHT22;30950;53.086;21.576;2024-01-07T00:06:23;-7.70;99.90
45207;DHT22;30950;53.086;21.576;2024-01-07T00:08:50;-7.70;99.90
45207;DHT22;30950;53.086;21.576;2024-01-07T00:11:18;-7.70;99.90
45207;DHT22;30950;53.086;21.576;2024-01-07T00:13:45;-7.80;99.90
45207;DHT22;30950;53.086;21.576;2024-01-07T00:16:13;-7.40;99.90
45207;DHT22;30950;53.086;21.576;2024-01-07T00:18:40;-7.90;99.90
45207;DHT22;30950;53.086;21.576;2024-01-07T00:21:08;-7.90;99.90
45207;DHT22;30950;53.086;21.576;2024-01-07T00:23:35;-7.90;99.90
45207;DHT22;30950;53.086;21.576;2024-01-07T00:26:03;-8.00;99.90
45207;DHT22;30950;53.086;21.576;2024-01-07T00:28:30;-8.00;99.90
45207;DHT22;30950;53.086;21.576;2024-01-07T00:30:58;-8.10;99.90
45207;DHT22;30950;53.086;21.576;2024-01-07T00:33:25;-8.10;99.90
45207;DHT22;30950;53.086;21.576;2024-01-07T00:35:53;-8.10;99.90
45207;DHT22;30950;53.086;21.576;2024-01-07T00:38:20;-8.10;99.90
45207;DHT22;30950;53.086;21.576;2024-01-07T00:40:47;-8.20;99.90
45207;DHT22;30950;53.086;21.576;2024-01-07T00:43:14;-8.20;99.90
45207;DHT22;30950;53.086;21.576;2024-01-07T00:45:42;-8.20;99.90
45207;DHT22;30950;53.086;21.576;2024-01-07T00:48:09;-8.30;99.90
45207;DHT22;30950;53.086;21.576;2024-01-07T00:50:36;-8.30;99.90
45207;DHT22;30950;53.086;21.576;2024-01-07T00:53:04;-8.40;99.90
45207;DHT22;30950;53.086;21.576;2024-01-07T00:55:32;-8.40;99.90
45207;DHT22;30950;53.086;21.576;2024-01-07T00:57:59;-8.40;99.90
45207;DHT22;30950;53.086;21.576;2024-01-07T01:00:27;-8.40;99.90
45207;DHT22;30950;53.086;21.576;2024-01-07T01:02:55;-8.50;99.90
45207;DHT22;30950;53.086;21.576;2024-01-07T01:05:23;-8.50;99.90
45207;DHT22;30950;53.086;21.576;2024-01-07T01:07:50;-8.50;99.90
45207;DHT22;30950;53.086;21.576;2024-01-07T01:10:19;-8.50;99.90
45207;DHT22;30950;53.086;21.576;2024-01-07T01:12:47;-8.50;99.90
45207;DHT22;30950;53.086;21.576;2024-01-07T01:15:14;-8.50;99.90
45207;DHT22;30950;53.086;21.576;2024-01-07T01:17:43;-8.60;99.90
45207;DHT22;30950;53.086;21.576;2024-01-07T01:20:11;-8.70;99.90
45207;DHT22;30950;53.086;21.576;2024-01-07T01:22:38;-8.70;99.90
45207;DHT22;30950;53.086;21.576;2024-01-07T01:25:06;-8.80;99.90
45207;DHT22;30950;53.086;21.576;2024-01-07T01:27:34;-8.80;99.90
45207;DHT22;30950;53.086;21.576;2024-01-07T01:30:02;-8.80;99.90
45207;DHT22;30950;53.086;21.576;2024-01-07T01:32:29;-8.90;99.90
45207;DHT22;30950;53.086;21.576;2024-01-07T01:34:56;-8.90;99.90
45207;DHT22;30950;53.086;21.576;2024-01-07T01:37:23;-9.00;99.90
45207;DHT22;30950;53.086;21.576;2024-01-07T01:39:51;-9.00;99.90
45207;DHT22;30950;53.086;21.576;2024-01-07T01:42:18;-9.00;99.90
45207;DHT22;30950;53.086;21.576;2024-01-07T01:44:46;-9.00;99.90
45207;DHT22;30950;53.086;21.576;2024-01-07T01:47:13;-9.10;99.90
45207;DHT22;30950;53.086;21.576;2024-01-07T01:49:41;-9.10;99.90
45207;DHT22;30950;53.086;21.576;2024-01-07T01:52:10;-9.20;99.90
45207;DHT22;30950;53.086;21.576;2024-01-07T01:54:38;-9.20;99.90
45207;DHT22;30950;53.086;21.576;2024-01-07T01:57:07;-9.20;99.90
45207;DHT22;30950;53.086;21.576;2024-01-07T01:59:36;-9.20;99.90
45207;DHT22;30950;53.086;21.576;2024-01-07T02:02:03;-9.20;99.90
45207;DHT22;30950;53.086;21.576;2024-01-07T02:04:31;-9.20;99.90
45207;DHT22;30950;53.086;21.576;2024-01-07T02:06:58;-9.30;99.90
45207;DHT22;30950;53.086;21.576;2024-01-07T02:09:26;-9.30;99.90
45207;DHT22;30950;53.086;21.576;2024-01-07T02:12:03;-9.30;99.90
45207;DHT22;30950;53.086;21.576;2024-01-07T02:14:32;-9.30;99.90
45207;DHT22;30950;53.086;21.576;2024-01-07T02:16:59;-9.40;99.90
45207;DHT22;30950;53.086;21.576;2024-01-07T02:19:26;-9.40;99.90
45207;DHT22;30950;53.086;21.576;2024-01-07T02:21:56;-9.40;99.90
45207;DHT22;30950;53.086;21.576;2024-01-07T02:24:24;-9.40;99.90
45207;DHT22;30950;53.086;21.576;2024-01-07T02:26:51;-9.50;99.90
45207;DHT22;30950;53.086;21.576;2024-01-07T02:29:19;-9.50;99.90
45207;DHT22;30950;53.086;21.576;2024-01-07T02:31:46;-9.50;99.90
45207;DHT22;30950;53.086;21.576;2024-01-07T02:34:13;-9.50;99.90
45207;DHT22;30950;53.086;21.576;2024-01-07T02:36:41;-9.50;99.90
45207;DHT22;30950;53.086;21.576;2024-01-07T02:39:08;-9.50;99.90
45207;DHT22;30950;53.086;21.576;2024-01-07T02:41:35;-9.50;99.90
45207;DHT22;30950;53.086;21.576;2024-01-07T02:44:03;-9.60;99.90
45207;DHT22;30950;53.086;21.576;2024-01-07T02:46:31;-8.00;99.90
45207;DHT22;30950;53.086;21.576;2024-01-07T02:48:58;-9.60;99.90
45207;DHT22;30950;53.086;21.576;2024-01-07T02:51:26;-9.60;99.90
45207;DHT22;30950;53.086;21.576;2024-01-07T02:53:53;-9.60;99.90
45207;DHT22;30950;53.086;21.576;2024-01-07T02:56:20;-9.60;99.90
45207;DHT22;30950;53.086;21.576;2024-01-07T02:58:48;-9.60;99.90
45207;DHT22;30950;53.086;21.576;2024-01-07T03:01:15;-9.60;99.90
45207;DHT22;30950;53.086;21.576;2024-01-07T03:03:43;-9.50;99.90
45207;DHT22;30950;53.086;21.576;2024-01-07T03:06:10;-9.50;99.90
45207;DHT22;30950;53.086;21.576;2024-01-07T03:08:37;-9.50;99.90
45207;DHT22;30950;53.086;21.576;2024-01-07T03:11:05;-9.60;99.90
45207;DHT22;30950;53.086;21.576;2024-01-07T03:13:33;-9.50;99.90
45207;DHT22;30950;53.086;21.576;2024-01-07T03:16:01;-9.50;99.90
45207;DHT22;30950;53.086;21.576;2024-01-07T03:18:28;-9.60;99.90
45207;DHT22;30950;53.086;21.576;2024-01-07T03:20:57;-9.60;99.90
45207;DHT22;30950;53.086;21.576;2024-01-07T03:23:24;-9.60;99.90
45207;DHT22;30950;53.086;21.576;2024-01-07T03:25:51;-9.60;99.90
45207;DHT22;30950;53.086;21.576;2024-01-07T03:28:19;-9.60;99.90
45207;DHT22;30950;53.086;21.576;2024-01-07T03:30:46;-9.60;99.90
45207;DHT22;30950;53.086;21.576;2024-01-07T03:33:14;-9.60;99.90
45207;DHT22;30950;53.086;21.576;2024-01-07T03:35:41;-9.50;99.90
45207;DHT22;30950;53.086;21.576;2024-01-07T03:38:08;-9.60;99.90
45207;DHT22;30950;53.086;21.576;2024-01-07T03:40:35;-9.50;99.90
45207;DHT22;30950;53.086;21.576;2024-01-07T03:43:03;-9.50;99.90
45207;DHT22;30950;53.086;21.576;2024-01-07T03:45:30;-9.20;99.90
45207;DHT22;30950;53.086;21.576;2024-01-07T03:47:59;-9.40;99.90
45207;DHT22;30950;53.086;21.576;2024-01-07T03:50:26;-9.40;99.90
45207;DHT22;30950;53.086;21.576;2024-01-07T03:52:53;-9.40;99.90
45207;DHT22;30950;53.086;21.576;2024-01-07T03:55:20;-9.40;99.90
45207;DHT22;30950;53.086;21.576;2024-01-07T03:57:48;-9.40;99.90
45207;DHT22;30950;53.086;21.576;2024-01-07T04:00:15;-9.30;99.90
45207;DHT22;30950;53.086;21.576;2024-01-07T04:02:43;-9.30;99.90
45207;DHT22;30950;53.086;21.576;2024-01-07T04:05:10;-9.30;99.90
45207;DHT22;30950;53.086;21.576;2024-01-07T04:07:38;-9.30;99.90
45207;DHT22;30950;53.086;21.576;2024-01-07T04:10:06;-9.30;99.90
45207;DHT22;30950;53.086;21.576;2024-01-07T04:12:33;-9.20;99.90
45207;DHT22;30950;53.086;21.576;2024-01-07T04:15:01;-9.20;99.90
45207;DHT22;30950;53.086;21.576;2024-01-07T04:17:28;-9.20;99.90
45207;DHT22;30950;53.086;21.576;2024-01-07T04:19:55;-9.10;99.90
45207;DHT22;30950;53.086;21.576;2024-01-07T04:22:23;-9.10;99.90
45207;DHT22;30950;53.086;21.576;2024-01-07T04:24:50;-9.10;99.90
45207;DHT22;30950;53.086;21.576;2024-01-07T04:27:18;-9.00;99.90
45207;DHT22;30950;53.086;21.576;2024-01-07T04:29:45;-9.00;99.90
45207;DHT22;30950;53.086;21.576;2024-01-07T04:32:12;-9.00;99.90
45207;DHT22;30950;53.086;21.576;2024-01-07T04:34:39;-8.90;99.90
45207;DHT22;30950;53.086;21.576;2024-01-07T04:37:10;-8.90;99.90
45207;DHT22;30950;53.086;21.576;2024-01-07T04:39:37;-8.80;99.90
45207;DHT22;30950;53.086;21.576;2024-01-07T04:42:05;-8.10;99.90
45207;DHT22;30950;53.086;21.576;2024-01-07T04:44:34;-8.70;99.90
45207;DHT22;30950;53.086;21.576;2024-01-07T04:47:02;-8.70;99.90
45207;DHT22;30950;53.086;21.576;2024-01-07T04:49:29;-8.70;99.90
45207;DHT22;30950;53.086;21.576;2024-01-07T04:51:56;-8.60;99.90
45207;DHT22;30950;53.086;21.576;2024-01-07T04:54:24;-8.60;99.90
45207;DHT22;30950;53.086;21.576;2024-01-07T04:56:51;-8.60;99.90
45207;DHT22;30950;53.086;21.576;2024-01-07T04:59:18;-8.60;99.90
45207;DHT22;30950;53.086;21.576;2024-01-07T05:01:46;-8.60;99.90
45207;DHT22;30950;53.086;21.576;2024-01-07T05:04:13;-9.00;99.90
45207;DHT22;30950;53.086;21.576;2024-01-07T05:06:44;-8.50;99.90
45207;DHT22;30950;53.086;21.576;2024-01-07T05:09:12;-8.50;99.90
45207;DHT22;30950;53.086;21.576;2024-01-07T05:11:40;-8.50;99.90
45207;DHT22;30950;53.086;21.576;2024-01-07T05:14:07;-8.50;99.90
45207;DHT22;30950;53.086;21.576;2024-01-07T05:16:34;-8.40;99.90
45207;DHT22;30950;53.086;21.576;2024-01-07T05:19:02;-8.40;99.90
45207;DHT22;30950;53.086;21.576;2024-01-07T05:21:29;-8.40;99.90
45207;DHT22;30950;53.086;21.576;2024-01-07T05:23:57;-8.40;99.90
45207;DHT22;30950;53.086;21.576;2024-01-07T05:26:24;-8.40;99.90
45207;DHT22;30950;53.086;21.576;2024-01-07T05:28:51;-8.40;99.90
45207;DHT22;30950;53.086;21.576;2024-01-07T05:31:19;-8.40;99.90
45207;DHT22;30950;53.086;21.576;2024-01-07T05:33:46;-8.40;99.90
45207;DHT22;30950;53.086;21.576;2024-01-07T05:36:15;-8.40;99.90
45207;DHT22;30950;53.086;21.576;2024-01-07T05:38:42;-8.40;99.90
45207;DHT22;30950;53.086;21.576;2024-01-07T05:41:10;-8.40;99.90
45207;DHT22;30950;53.086;21.576;2024-01-07T05:43:37;-8.40;99.90
45207;DHT22;30950;53.086;21.576;2024-01-07T05:46:05;-8.30;99.90
45207;DHT22;30950;53.086;21.576;2024-01-07T05:48:45;-8.30;99.90
45207;DHT22;30950;53.086;21.576;2024-01-07T05:51:14;-8.30;99.90
45207;DHT22;30950;53.086;21.576;2024-01-07T05:53:43;-8.30;99.90
45207;DHT22;30950;53.086;21.576;2024-01-07T05:56:10;-8.30;99.90
45207;DHT22;30950;53.086;21.576;2024-01-07T05:58:38;-8.30;99.90
45207;DHT22;30950;53.086;21.576;2024-01-07T06:01:07;-8.30;99.90
45207;DHT22;30950;53.086;21.576;2024-01-07T06:03:36;-8.30;99.90
45207;DHT22;30950;53.086;21.576;2024-01-07T06:06:04;-8.30;99.90
45207;DHT22;30950;53.086;21.576;2024-01-07T06:08:31;-8.30;99.90
45207;DHT22;30950;53.086;21.576;2024-01-07T06:10:58;-8.30;99.90
45207;DHT22;30950;53.086;21.576;2024-01-07T06:13:26;-8.40;99.90
45207;DHT22;30950;53.086;21.576;2024-01-07T06:15:54;-8.40;99.90
45207;DHT22;30950;53.086;21.576;2024-01-07T06:18:21;-8.40;99.90
45207;DHT22;30950;53.086;21.576;2024-01-07T06:20:48;-8.40;99.90
45207;DHT22;30950;53.086;21.576;2024-01-07T06:23:16;-8.40;99.90
45207;DHT22;30950;53.086;21.576;2024-01-07T06:25:43;-7.70;99.90
45207;DHT22;30950;53.086;21.576;2024-01-07T06:28:10;-8.40;99.90
45207;DHT22;30950;53.086;21.576;2024-01-07T06:30:38;-8.10;99.90
45207;DHT22;30950;53.086;21.576;2024-01-07T06:33:05;-8.40;99.90
45207;DHT22;30950;53.086;21.576;2024-01-07T06:35:33;-8.40;99.90
45207;DHT22;30950;53.086;21.576;2024-01-07T06:38:00;-8.40;99.90
45207;DHT22;30950;53.086;21.576;2024-01-07T06:40:28;-7.90;99.90
45207;DHT22;30950;53.086;21.576;2024-01-07T06:42:55;-8.40;99.90
45207;DHT22;30950;53.086;21.576;2024-01-07T06:45:23;-8.40;99.90
45207;DHT22;30950;53.086;21.576;2024-01-07T06:47:50;-8.40;99.90
45207;DHT22;30950;53.086;21.576;2024-01-07T06:50:18;-8.40;99.90
45207;DHT22;30950;53.086;21.576;2024-01-07T06:52:46;-8.40;99.90
45207;DHT22;30950;53.086;21.576;2024-01-07T06:55:14;-8.40;99.90
45207;DHT22;30950;53.086;21.576;2024-01-07T06:57:41;-8.40;99.90
45207;DHT22;30950;53.086;21.576;2024-01-07T07:00:09;-8.30;99.90
45207;DHT22;30950;53.086;21.576;2024-01-07T07:02:36;-8.40;99.90
45207;DHT22;30950;53.086;21.576;2024-01-07T07:05:04;-8.30;99.90
45207;DHT22;30950;53.086;21.576;2024-01-07T07:07:31;-8.30;99.90
45207;DHT22;30950;53.086;21.576;2024-01-07T07:09:58;-8.30;99.90
45207;DHT22;30950;53.086;21.576;2024-01-07T07:12:27;-8.30;99.90
45207;DHT22;30950;53.086;21.576;2024-01-07T07:14:54;-8.30;99.90
45207;DHT22;30950;53.086;21.576;2024-01-07T07:17:22;-8.30;99.90
45207;DHT22;30950;53.086;21.576;2024-01-07T07:19:49;-8.30;99.90
45207;DHT22;30950;53.086;21.576;2024-01-07T07:22:16;-8.20;99.90
45207;DHT22;30950;53.086;21.576;2024-01-07T07:24:44;-8.20;99.90
45207;DHT22;30950;53.086;21.576;2024-01-07T07:27:11;-8.10;99.90
45207;DHT22;30950;53.086;21.576;2024-01-07T07:29:39;-8.10;99.90
45207;DHT22;30950;53.086;21.576;2024-01-07T07:32:06;-8.00;99.90
45207;DHT22;30950;53.086;21.576;2024-01-07T07:34:34;-8.00;99.90
45207;DHT22;30950;53.086;21.576;2024-01-07T07:37:01;-8.00;99.90
45207;DHT22;30950;53.086;21.576;2024-01-07T07:39:29;-7.90;99.90
45207;DHT22;30950;53.086;21.576;2024-01-07T07:41:57;-7.90;99.90
45207;DHT22;30950;53.086;21.576;2024-01-07T07:44:26;-7.90;99.90
45207;DHT22;30950;53.086;21.576;2024-01-07T07:46:54;-7.90;99.90
45207;DHT22;30950;53.086;21.576;2024-01-07T07:49:21;-8.00;99.90
45207;DHT22;30950;53.086;21.576;2024-01-07T07:51:51;-8.00;99.90
45207;DHT22;30950;53.086;21.576;2024-01-07T07:54:19;-8.00;99.90
45207;DHT22;30950;53.086;21.576;2024-01-07T07:56:46;-7.90;99.90
45207;DHT22;30950;53.086;21.576;2024-01-07T07:59:15;-7.90;99.90
45207;DHT22;30950;53.086;21.576;2024-01-07T08:01:42;-7.90;99.90
45207;DHT22;30950;53.086;21.576;2024-01-07T08:04:10;-7.90;99.90
45207;DHT22;30950;53.086;21.576;2024-01-07T08:06:37;-6.00;99.90
45207;DHT22;30950;53.086;21.576;2024-01-07T08:09:05;-7.90;99.90
45207;DHT22;30950;53.086;21.576;2024-01-07T08:11:33;-7.80;99.90
45207;DHT22;30950;53.086;21.576;2024-01-07T08:14:02;-7.80;99.90
45207;DHT22;30950;53.086;21.576;2024-01-07T08:16:29;-7.80;99.90
45207;DHT22;30950;53.086;21.576;2024-01-07T08:18:57;-7.70;99.90
45207;DHT22;30950;53.086;21.576;2024-01-07T08:21:24;-7.70;99.90
45207;DHT22;30950;53.086;21.576;2024-01-07T08:23:52;-7.70;99.90
45207;DHT22;30950;53.086;21.576;2024-01-07T08:26:20;-7.70;99.90
45207;DHT22;30950;53.086;21.576;2024-01-07T08:28:48;-7.70;99.90
45207;DHT22;30950;53.086;21.576;2024-01-07T08:31:15;-7.60;99.90
45207;DHT22;30950;53.086;21.576;2024-01-07T08:33:43;-7.60;99.90
45207;DHT22;30950;53.086;21.576;2024-01-07T08:36:10;-7.60;99.90
45207;DHT22;30950;53.086;21.576;2024-01-07T08:38:37;-7.50;99.90
45207;DHT22;30950;53.086;21.576;2024-01-07T08:41:06;-7.50;99.90
45207;DHT22;30950;53.086;21.576;2024-01-07T08:43:35;-7.50;99.90
45207;DHT22;30950;53.086;21.576;2024-01-07T08:46:04;-7.50;99.90
45207;DHT22;30950;53.086;21.576;2024-01-07T08:48:32;-7.40;99.90
45207;DHT22;30950;53.086;21.576;2024-01-07T08:50:59;-7.40;99.90
45207;DHT22;30950;53.086;21.576;2024-01-07T08:53:27;-7.40;99.90
45207;DHT22;30950;53.086;21.576;2024-01-07T08:55:54;-7.30;99.90
45207;DHT22;30950;53.086;21.576;2024-01-07T08:58:22;-7.30;99.90
45207;DHT22;30950;53.086;21.576;2024-01-07T09:00:50;-7.30;99.90
45207;DHT22;30950;53.086;21.576;2024-01-07T09:03:17;-7.20;99.90
45207;DHT22;30950;53.086;21.576;2024-01-07T09:05:45;-7.20;99.90
45207;DHT22;30950;53.086;21.576;2024-01-07T09:08:12;-5.50;99.90
45207;DHT22;30950;53.086;21.576;2024-01-07T09:10:41;-7.30;99.90
45207;DHT22;30950;53.086;21.576;2024-01-07T09:13:09;-7.20;99.90
45207;DHT22;30950;53.086;21.576;2024-01-07T09:15:36;-7.20;99.90
45207;DHT22;30950;53.086;21.576;2024-01-07T09:18:04;-7.10;99.90
45207;DHT22;30950;53.086;21.576;2024-01-07T09:20:32;-7.10;99.90
45207;DHT22;30950;53.086;21.576;2024-01-07T09:22:59;-7.10;99.90
45207;DHT22;30950;53.086;21.576;2024-01-07T09:25:26;-7.10;99.90
45207;DHT22;30950;53.086;21.576;2024-01-07T09:27:54;-7.00;99.90
45207;DHT22;30950;53.086;21.576;2024-01-07T09:30:21;-7.00;99.90
45207;DHT22;30950;53.086;21.576;2024-01-07T09:32:49;-7.00;99.90
45207;DHT22;30950;53.086;21.576;2024-01-07T09:35:17;-6.90;99.90
45207;DHT22;30950;53.086;21.576;2024-01-07T09:37:45;-5.60;99.90
45207;DHT22;30950;53.086;21.576;2024-01-07T09:40:12;-6.70;99.90
45207;DHT22;30950;53.086;21.576;2024-01-07T09:42:44;-6.60;99.90
45207;DHT22;30950;53.086;21.576;2024-01-07T09:45:13;-6.60;99.90
45207;DHT22;30950;53.086;21.576;2024-01-07T09:47:41;-6.50;99.90
45207;DHT22;30950;53.086;21.576;2024-01-07T09:50:11;-6.50;99.90
45207;DHT22;30950;53.086;21.576;2024-01-07T09:52:40;-6.60;99.90
45207;DHT22;30950;53.086;21.576;2024-01-07T09:55:09;-6.60;99.90
45207;DHT22;30950;53.086;21.576;2024-01-07T09:57:41;-6.60;99.90
45207;DHT22;30950;53.086;21.576;2024-01-07T10:00:12;-6.70;99.90
45207;DHT22;30950;53.086;21.576;2024-01-07T10:02:40;-6.70;99.90
45207;DHT22;30950;53.086;21.576;2024-01-07T10:05:08;-6.80;99.90
45207;DHT22;30950;53.086;21.576;2024-01-07T10:07:36;-6.80;99.90
45207;DHT22;30950;53.086;21.576;2024-01-07T10:10:16;-6.80;99.90
45207;DHT22;30950;53.086;21.576;2024-01-07T10:12:45;-6.80;99.90
45207;DHT22;30950;53.086;21.576;2024-01-07T10:15:15;-6.80;99.90
45207;DHT22;30950;53.086;21.576;2024-01-07T10:17:43;-6.80;99.90
45207;DHT22;30950;53.086;21.576;2024-01-07T10:20:11;-6.80;99.90
45207;DHT22;30950;53.086;21.576;2024-01-07T10:22:38;-6.80;99.90
45207;DHT22;30950;53.086;21.576;2024-01-07T10:25:06;-6.90;99.90
45207;DHT22;30950;53.086;21.576;2024-01-07T10:27:36;-6.90;99.90
45207;DHT22;30950;53.086;21.576;2024-01-07T10:30:04;-6.90;99.90
45207;DHT22;30950;53.086;21.576;2024-01-07T10:32:31;-6.90;99.90
45207;DHT22;30950;53.086;21.576;2024-01-07T10:35:03;-6.80;99.90
45207;DHT22;30950;53.086;21.576;2024-01-07T10:37:32;-6.80;99.90
45207;DHT22;30950;53.086;21.576;2024-01-07T10:40:00;-6.70;99.90
45207;DHT22;30950;53.086;21.576;2024-01-07T10:42:31;-6.70;99.90
45207;DHT22;30950;53.086;21.576;2024-01-07T10:45:01;-6.70;99.90
45207;DHT22;30950;53.086;21.576;2024-01-07T10:47:32;-6.60;99.90
45207;DHT22;30950;53.086;21.576;2024-01-07T10:50:02;-6.60;99.90
45207;DHT22;30950;53.086;21.576;2024-01-07T10:52:32;-6.70;99.90
45207;DHT22;30950;53.086;21.576;2024-01-07T10:55:08;-6.70;99.90
45207;DHT22;30950;53.086;21.576;2024-01-07T10:57:48;-6.70;99.90
45207;DHT22;30950;53.086;21.576;2024-01-07T11:00:17;-6.60;99.90
45207;DHT22;30950;53.086;21.576;2024-01-07T11:06:03;-6.60;99.90
45207;DHT22;30950;53.086;21.576;2024-01-07T11:09:03;-6.50;99.90
45207;DHT22;30950;53.086;21.576;2024-01-07T11:11:38;-6.50;99.90
45207;DHT22;30950;53.086;21.576;2024-01-07T11:17:07;-6.60;99.90
45207;DHT22;30950;53.086;21.576;2024-01-07T11:19:38;-6.60;99.90
45207;DHT22;30950;53.086;21.576;2024-01-07T11:24:54;-6.70;99.90
45207;DHT22;30950;53.086;21.576;2024-01-07T11:27:29;-6.70;99.90
45207;DHT22;30950;53.086;21.576;2024-01-07T11:30:19;-6.70;99.90
45207;DHT22;30950;53.086;21.576;2024-01-07T11:32:47;-6.80;99.90
45207;DHT22;30950;53.086;21.576;2024-01-07T11:35:54;-6.80;99.90
45207;DHT22;30950;53.086;21.576;2024-01-07T11:38:23;-6.90;99.90
45207;DHT22;30950;53.086;21.576;2024-01-07T11:40:51;-7.00;99.90
45207;DHT22;30950;53.086;21.576;2024-01-07T11:43:19;-7.00;99.90
45207;DHT22;30950;53.086;21.576;2024-01-07T11:45:49;-7.00;99.90
45207;DHT22;30950;53.086;21.576;2024-01-07T11:48:20;-7.10;99.90
45207;DHT22;30950;53.086;21.576;2024-01-07T11:50:48;-7.10;99.90
45207;DHT22;30950;53.086;21.576;2024-01-07T11:53:18;-7.20;99.90
45207;DHT22;30950;53.086;21.576;2024-01-07T11:55:46;-7.30;99.90
45207;DHT22;30950;53.086;21.576;2024-01-07T11:58:14;-7.30;99.90
45207;DHT22;30950;53.086;21.576;2024-01-07T12:00:41;-7.40;99.90
45207;DHT22;30950;53.086;21.576;2024-01-07T12:03:08;-7.50;99.90
45207;DHT22;30950;53.086;21.576;2024-01-07T12:05:36;-7.50;99.90
45207;DHT22;30950;53.086;21.576;2024-01-07T12:08:05;-7.50;99.90
45207;DHT22;30950;53.086;21.576;2024-01-07T12:10:33;-7.50;99.90
45207;DHT22;30950;53.086;21.576;2024-01-07T12:13:01;-7.40;99.90
45207;DHT22;30950;53.086;21.576;2024-01-07T12:15:29;-7.40;99.90
45207;DHT22;30950;53.086;21.576;2024-01-07T12:17:58;-7.40;99.90
45207;DHT22;30950;53.086;21.576;2024-01-07T12:20:27;-6.60;99.90
45207;DHT22;30950;53.086;21.576;2024-01-07T12:23:09;-7.40;99.90
45207;DHT22;30950;53.086;21.576;2024-01-07T12:25:37;-7.30;99.90
45207;DHT22;30950;53.086;21.576;2024-01-07T12:28:08;-7.30;99.90
45207;DHT22;30950;53.086;21.576;2024-01-07T12:30:37;-7.40;99.90
45207;DHT22;30950;53.086;21.576;2024-01-07T12:33:05;-7.40;99.90
45207;DHT22;30950;53.086;21.576;2024-01-07T12:35:34;-7.30;99.90
45207;DHT22;30950;53.086;21.576;2024-01-07T12:38:02;-7.30;99.90
45207;DHT22;30950;53.086;21.576;2024-01-07T12:40:29;-7.20;99.90
45207;DHT22;30950;53.086;21.576;2024-01-07T12:42:57;-7.20;99.90
45207;DHT22;30950;53.086;21.576;2024-01-07T12:45:25;-7.20;99.90
45207;DHT22;30950;53.086;21.576;2024-01-07T12:47:52;-7.30;99.90
45207;DHT22;30950;53.086;21.576;2024-01-07T12:50:22;-7.40;99.90
45207;DHT22;30950;53.086;21.576;2024-01-07T12:52:51;-7.40;99.90
45207;DHT22;30950;53.086;21.576;2024-01-07T12:55:18;-7.50;99.90
45207;DHT22;30950;53.086;21.576;2024-01-07T12:57:45;-7.60;99.90
45207;DHT22;30950;53.086;21.576;2024-01-07T13:00:13;-7.60;99.90
45207;DHT22;30950;53.086;21.576;2024-01-07T13:02:41;-7.60;99.90
45207;DHT22;30950;53.086;21.576;2024-01-07T13:05:09;-7.70;99.90
45207;DHT22;30950;53.086;21.576;2024-01-07T13:07:38;-7.70;99.90
45207;DHT22;30950;53.086;21.576;2024-01-07T13:10:06;-6.30;99.90
45207;DHT22;30950;53.086;21.576;2024-01-07T13:12:34;-7.80;99.90
45207;DHT22;30950;53.086;21.576;2024-01-07T13:15:13;-7.80;99.90
45207;DHT22;30950;53.086;21.576;2024-01-07T13:17:44;-7.90;99.90
45207;DHT22;30950;53.086;21.576;2024-01-07T13:20:12;-7.90;99.90
45207;DHT22;30950;53.086;21.576;2024-01-07T13:22:40;-8.00;99.90
45207;DHT22;30950;53.086;21.576;2024-01-07T13:25:08;-8.00;99.90
45207;DHT22;30950;53.086;21.576;2024-01-07T13:27:35;-8.00;99.90
45207;DHT22;30950;53.086;21.576;2024-01-07T13:30:05;-8.10;99.90
45207;DHT22;30950;53.086;21.576;2024-01-07T13:32:33;-8.10;99.90
45207;DHT22;30950;53.086;21.576;2024-01-07T13:35:06;-8.10;99.90
45207;DHT22;30950;53.086;21.576;2024-01-07T13:37:39;-8.10;99.90
45207;DHT22;30950;53.086;21.576;2024-01-07T13:40:10;-8.10;99.90
45207;DHT22;30950;53.086;21.576;2024-01-07T13:42:38;-8.20;99.90
45207;DHT22;30950;53.086;21.576;2024-01-07T13:45:06;-8.30;99.90
45207;DHT22;30950;53.086;21.576;2024-01-07T13:47:33;-8.40;99.90
45207;DHT22;30950;53.086;21.576;2024-01-07T13:50:03;-7.10;99.90
45207;DHT22;30950;53.086;21.576;2024-01-07T13:52:31;-8.70;99.90
45207;DHT22;30950;53.086;21.576;2024-01-07T13:54:58;-8.80;99.90
45207;DHT22;30950;53.086;21.576;2024-01-07T13:57:25;-8.90;99.90
45207;DHT22;30950;53.086;21.576;2024-01-07T13:59:53;-8.90;99.90
45207;DHT22;30950;53.086;21.576;2024-01-07T14:02:20;-9.00;99.90
45207;DHT22;30950;53.086;21.576;2024-01-07T14:04:49;-9.10;99.90
45207;DHT22;30950;53.086;21.576;2024-01-07T14:07:21;-9.10;99.90
45207;DHT22;30950;53.086;21.576;2024-01-07T14:09:48;-9.10;99.90
45207;DHT22;30950;53.086;21.576;2024-01-07T14:12:16;-9.20;99.90
45207;DHT22;30950;53.086;21.576;2024-01-07T14:14:45;-9.20;99.90
45207;DHT22;30950;53.086;21.576;2024-01-07T14:17:12;-9.30;99.90
45207;DHT22;30950;53.086;21.576;2024-01-07T14:19:40;-9.30;99.90
45207;DHT22;30950;53.086;21.576;2024-01-07T14:22:07;-9.30;99.90
45207;DHT22;30950;53.086;21.576;2024-01-07T14:24:35;-9.40;99.90
45207;DHT22;30950;53.086;21.576;2024-01-07T14:27:02;-9.40;99.90
45207;DHT22;30950;53.086;21.576;2024-01-07T14:29:30;-9.50;99.90
45207;DHT22;30950;53.086;21.576;2024-01-07T14:31:57;-9.60;99.90
45207;DHT22;30950;53.086;21.576;2024-01-07T14:34:24;-9.60;99.90
45207;DHT22;30950;53.086;21.576;2024-01-07T14:36:52;-9.60;99.90
45207;DHT22;30950;53.086;21.576;2024-01-07T14:39:19;-9.60;99.90
45207;DHT22;30950;53.086;21.576;2024-01-07T14:41:46;-8.10;99.90
45207;DHT22;30950;53.086;21.576;2024-01-07T14:44:14;-9.60;99.90
45207;DHT22;30950;53.086;21.576;2024-01-07T14:46:42;-9.70;99.90
45207;DHT22;30950;53.086;21.576;2024-01-07T14:49:10;-9.70;99.90
45207;DHT22;30950;53.086;21.576;2024-01-07T14:51:37;-9.80;99.90
45207;DHT22;30950;53.086;21.576;2024-01-07T14:54:05;-9.80;99.90
45207;DHT22;30950;53.086;21.576;2024-01-07T14:56:32;-9.80;99.90
45207;DHT22;30950;53.086;21.576;2024-01-07T14:58:59;-9.90;99.90
45207;DHT22;30950;53.086;21.576;2024-01-07T15:01:26;-9.90;99.90
45207;DHT22;30950;53.086;21.576;2024-01-07T15:03:56;-9.30;99.90
45207;DHT22;30950;53.086;21.576;2024-01-07T15:06:25;-10.00;99.90
45207;DHT22;30950;53.086;21.576;2024-01-07T15:08:53;-10.00;99.90
45207;DHT22;30950;53.086;21.576;2024-01-07T15:11:22;-10.10;99.90
45207;DHT22;30950;53.086;21.576;2024-01-07T15:13:49;-10.00;99.90
45207;DHT22;30950;53.086;21.576;2024-01-07T15:16:16;-10.10;99.90
45207;DHT22;30950;53.086;21.576;2024-01-07T15:18:44;-10.10;99.90
45207;DHT22;30950;53.086;21.576;2024-01-07T15:21:12;-10.10;99.90
45207;DHT22;30950;53.086;21.576;2024-01-07T15:23:39;-10.10;99.90
45207;DHT22;30950;53.086;21.576;2024-01-07T15:26:06;-10.10;99.90
45207;DHT22;30950;53.086;21.576;2024-01-07T15:28:34;-10.20;99.90
45207;DHT22;30950;53.086;21.576;2024-01-07T15:31:01;-10.10;99.90